createdAt,value
2016-10-18T00:00:06.702Z,0
2016-10-18T00:01:06.642Z,0
2016-10-18T00:02:06.741Z,0
2016-10-18T00:03:06.138Z,0
2016-10-18T00:04:06.749Z,0
2016-10-18T00:05:06.721Z,0
2016-10-18T00:06:06.138Z,0
2016-10-18T00:07:06.471Z,0
2016-10-18T00:08:06.489Z,0
2016-10-18T00:09:06.200Z,0
2016-10-18T00:10:06.939Z,0
2016-10-18T00:11:06.837Z,0
2016-10-18T00:12:06.948Z,0
2016-10-18T00:13:06.389Z,0
2016-10-18T00:14:06.607Z,0
2016-10-18T00:15:06.930Z,0
2016-10-18T00:16:06.939Z,0
2016-10-18T00:17:06.471Z,0
2016-10-18T00:18:06.370Z,0
2016-10-18T00:19:06.733Z,0
2016-10-18T00:20:06.448Z,0
2016-10-18T00:21:06.740Z,0
2016-10-18T00:22:07.150Z,0
2016-10-18T00:23:07.122Z,0
2016-10-18T00:24:07.233Z,0
2016-10-18T00:25:06.823Z,0
2016-10-18T00:26:06.832Z,0
2016-10-18T00:27:06.896Z,0
2016-10-18T00:28:06.878Z,0
2016-10-18T00:29:07.193Z,0
2016-10-18T00:30:06.942Z,0
2016-10-18T00:31:06.942Z,0
2016-10-18T00:32:07.270Z,0
2016-10-18T00:33:06.987Z,0
2016-10-18T00:34:07.300Z,0
2016-10-18T00:35:07.494Z,0
2016-10-18T00:36:07.451Z,0
2016-10-18T00:37:07.193Z,0
2016-10-18T00:38:06.851Z,0
2016-10-18T00:39:07.405Z,0
2016-10-18T00:40:07.153Z,0
2016-10-18T00:41:07.156Z,0
2016-10-18T00:42:07.474Z,0
2016-10-18T00:43:07.484Z,0
2016-10-18T00:44:07.192Z,0
2016-10-18T00:45:07.523Z,0
2016-10-18T00:46:07.532Z,0
2016-10-18T00:47:07.594Z,0
2016-10-18T00:48:07.622Z,0
2016-10-18T00:49:07.302Z,0
2016-10-18T00:50:07.364Z,0
2016-10-18T00:51:07.723Z,0
2016-10-18T00:52:07.114Z,0
2016-10-18T00:53:07.744Z,0
2016-10-18T00:54:07.719Z,0
2016-10-18T00:55:07.731Z,0
2016-10-18T00:56:07.434Z,0
2016-10-18T00:57:07.465Z,0
2016-10-18T00:58:07.762Z,0
2016-10-18T00:59:07.868Z,0
2016-10-18T01:00:07.818Z,0
2016-10-18T01:01:07.308Z,0
2016-10-18T01:02:07.855Z,0
2016-10-18T01:03:07.925Z,0
2016-10-18T01:04:07.876Z,0
2016-10-18T01:05:07.969Z,0
2016-10-18T01:06:07.304Z,0
2016-10-18T01:07:07.955Z,0
2016-10-18T01:08:07.345Z,0
2016-10-18T01:09:07.733Z,0
2016-10-18T01:10:08.005Z,0
2016-10-18T01:11:08.022Z,0
2016-10-18T01:12:08.076Z,0
2016-10-18T01:13:08.162Z,0
2016-10-18T01:14:07.477Z,0
2016-10-18T01:15:07.784Z,0
2016-10-18T01:16:07.858Z,0
2016-10-18T01:17:08.198Z,0
2016-10-18T01:18:07.852Z,0
2016-10-18T01:19:07.908Z,0
2016-10-18T01:20:08.206Z,0
2016-10-18T01:21:07.950Z,0
2016-10-18T01:22:07.937Z,0
2016-10-18T01:23:07.945Z,0
2016-10-18T01:24:08.387Z,0
2016-10-18T01:25:07.995Z,0
2016-10-18T01:26:07.710Z,0
2016-10-18T01:27:08.347Z,0
2016-10-18T01:28:07.745Z,0
2016-10-18T01:29:07.755Z,0
2016-10-18T01:30:08.419Z,0
2016-10-18T01:31:08.438Z,0
2016-10-18T01:32:08.437Z,0
2016-10-18T01:33:07.828Z,0
2016-10-18T01:34:08.466Z,0
2016-10-18T01:35:08.488Z,0
2016-10-18T01:36:08.520Z,0
2016-10-18T01:37:08.221Z,0
2016-10-18T01:38:07.927Z,0
2016-10-18T01:39:08.266Z,0
2016-10-18T01:40:08.655Z,0
2016-10-18T01:41:08.308Z,0
2016-10-18T01:42:08.330Z,0
2016-10-18T01:43:08.653Z,0
2016-10-18T01:44:08.668Z,0
2016-10-18T01:45:08.725Z,0
2016-10-18T01:46:08.420Z,0
2016-10-18T01:47:08.439Z,0
2016-10-18T01:48:08.432Z,0
2016-10-18T01:49:08.869Z,0
2016-10-18T01:50:08.796Z,0
2016-10-18T01:51:08.383Z,0
2016-10-18T01:52:08.506Z,0
2016-10-18T01:53:08.881Z,0
2016-10-18T01:54:08.958Z,0
2016-10-18T01:55:08.556Z,0
2016-10-18T01:56:08.290Z,0
2016-10-18T01:57:08.594Z,0
2016-10-18T01:58:08.645Z,0
2016-10-18T01:59:08.643Z,0
2016-10-18T02:00:08.973Z,0
2016-10-18T02:01:08.985Z,0
2016-10-18T02:02:09.069Z,0
2016-10-18T02:03:09.164Z,0
2016-10-18T02:04:08.735Z,0
2016-10-18T02:05:08.186Z,0
2016-10-18T02:06:09.128Z,0
2016-10-18T02:07:08.801Z,0
2016-10-18T02:08:08.828Z,0
2016-10-18T02:09:08.850Z,0
2016-10-18T02:10:08.369Z,0
2016-10-18T02:11:09.189Z,0
2016-10-18T02:12:09.218Z,0
2016-10-18T02:13:08.920Z,0
2016-10-18T02:14:09.247Z,0
2016-10-18T02:15:08.988Z,0
2016-10-18T02:16:09.276Z,0
2016-10-18T02:17:08.490Z,0
2016-10-18T02:18:09.099Z,0
2016-10-18T02:19:09.089Z,0
2016-10-18T02:20:08.434Z,0
2016-10-18T02:21:09.388Z,0
2016-10-18T02:22:09.430Z,0
2016-10-18T02:23:09.439Z,0
2016-10-18T02:24:09.439Z,0
2016-10-18T02:25:09.171Z,0
2016-10-18T02:26:08.930Z,0
2016-10-18T02:27:09.509Z,0
2016-10-18T02:28:09.218Z,0
2016-10-18T02:29:09.244Z,0
2016-10-18T02:30:09.420Z,0
2016-10-18T02:31:09.670Z,0
2016-10-18T02:32:09.607Z,0
2016-10-18T02:33:09.732Z,0
2016-10-18T02:34:09.649Z,0
2016-10-18T02:35:09.677Z,0
2016-10-18T02:36:09.579Z,0
2016-10-18T02:37:09.717Z,0
2016-10-18T02:38:09.443Z,0
2016-10-18T02:39:09.737Z,0
2016-10-18T02:40:09.459Z,0
2016-10-18T02:41:09.291Z,0
2016-10-18T02:42:09.785Z,0
2016-10-18T02:43:09.589Z,0
2016-10-18T02:44:09.870Z,0
2016-10-18T02:45:09.856Z,0
2016-10-18T02:46:09.579Z,0
2016-10-18T02:47:09.898Z,0
2016-10-18T02:48:09.964Z,0
2016-10-18T02:49:09.618Z,0
2016-10-18T02:50:09.979Z,0
2016-10-18T02:51:09.981Z,0
2016-10-18T02:52:09.670Z,0
2016-10-18T02:53:09.770Z,0
2016-10-18T02:54:10.033Z,0
2016-10-18T02:55:09.430Z,0
2016-10-18T02:56:10.188Z,0
2016-10-18T02:57:10.096Z,0
2016-10-18T02:58:10.190Z,0
2016-10-18T02:59:10.151Z,0
2016-10-18T03:00:09.850Z,0
2016-10-18T03:01:09.232Z,0
2016-10-18T03:02:10.190Z,0
2016-10-18T03:03:10.211Z,0
2016-10-18T03:04:10.220Z,0
2016-10-18T03:05:10.261Z,0
2016-10-18T03:06:09.950Z,0
2016-10-18T03:07:10.432Z,0
2016-10-18T03:08:10.000Z,0
2016-10-18T03:09:10.299Z,0
2016-10-18T03:10:10.382Z,0
2016-10-18T03:11:10.449Z,0
2016-10-18T03:12:10.376Z,0
2016-10-18T03:13:10.110Z,0
2016-10-18T03:14:10.101Z,0
2016-10-18T03:15:10.459Z,0
2016-10-18T03:16:10.209Z,0
2016-10-18T03:17:10.240Z,0
2016-10-18T03:18:10.210Z,0
2016-10-18T03:19:10.649Z,0
2016-10-18T03:20:10.529Z,0
2016-10-18T03:21:10.240Z,0
2016-10-18T03:22:10.557Z,0
2016-10-18T03:23:10.589Z,0
2016-10-18T03:24:09.702Z,0
2016-10-18T03:25:10.619Z,0
2016-10-18T03:26:10.000Z,0
2016-10-18T03:27:10.088Z,0
2016-10-18T03:28:10.411Z,0
2016-10-18T03:29:10.121Z,0
2016-10-18T03:30:10.419Z,0
2016-10-18T03:31:10.459Z,0
2016-10-18T03:32:10.912Z,0
2016-10-18T03:33:10.154Z,0
2016-10-18T03:34:10.482Z,0
2016-10-18T03:35:10.922Z,0
2016-10-18T03:36:09.907Z,0
2016-10-18T03:37:10.840Z,0
2016-10-18T03:38:10.840Z,0
2016-10-18T03:39:10.912Z,0
2016-10-18T03:40:10.652Z,0
2016-10-18T03:41:10.928Z,0
2016-10-18T03:42:10.939Z,0
2016-10-18T03:43:10.974Z,0
2016-10-18T03:44:10.665Z,0
2016-10-18T03:45:10.691Z,0
2016-10-18T03:46:11.000Z,0
2016-10-18T03:47:11.044Z,0
2016-10-18T03:48:11.113Z,0
2016-10-18T03:49:10.772Z,0
2016-10-18T03:50:10.817Z,0
2016-10-18T03:51:11.116Z,0
2016-10-18T03:52:10.820Z,0
2016-10-18T03:53:11.137Z,0
2016-10-18T03:54:10.690Z,0
2016-10-18T03:55:10.948Z,0
2016-10-18T03:56:11.210Z,0
2016-10-18T03:57:11.042Z,0
2016-10-18T03:58:11.229Z,0
2016-10-18T03:59:11.276Z,0
2016-10-18T04:00:11.361Z,0
2016-10-18T04:01:10.988Z,0
2016-10-18T04:02:10.984Z,0
2016-10-18T04:03:11.378Z,0
2016-10-18T04:04:11.419Z,0
2016-10-18T04:05:11.370Z,0
2016-10-18T04:06:11.058Z,0
2016-10-18T04:07:11.397Z,0
2016-10-18T04:08:11.439Z,0
2016-10-18T04:09:11.443Z,0
2016-10-18T04:10:11.459Z,0
2016-10-18T04:11:11.168Z,0
2016-10-18T04:12:11.589Z,0
2016-10-18T04:13:11.502Z,0
2016-10-18T04:14:11.017Z,0
2016-10-18T04:15:11.688Z,0
2016-10-18T04:16:11.564Z,0
2016-10-18T04:17:11.270Z,0
2016-10-18T04:18:11.299Z,0
2016-10-18T04:19:11.048Z,0
2016-10-18T04:20:11.320Z,0
2016-10-18T04:21:11.643Z,0
2016-10-18T04:22:11.678Z,0
2016-10-18T04:23:11.436Z,0
2016-10-18T04:24:11.864Z,0
2016-10-18T04:25:11.593Z,0
2016-10-18T04:26:11.267Z,0
2016-10-18T04:27:11.527Z,0
2016-10-18T04:28:11.848Z,0
2016-10-18T04:29:11.498Z,0
2016-10-18T04:30:11.984Z,0
2016-10-18T04:31:11.874Z,0
2016-10-18T04:32:11.928Z,0
2016-10-18T04:33:11.589Z,0
2016-10-18T04:34:11.898Z,0
2016-10-18T04:35:11.908Z,0
2016-10-18T04:36:12.397Z,0
2016-10-18T04:37:12.336Z,0
2016-10-18T04:38:12.379Z,0
2016-10-18T04:39:12.417Z,0
2016-10-18T04:40:12.359Z,0
2016-10-18T04:41:11.867Z,0
2016-10-18T04:42:12.698Z,0
2016-10-18T04:43:11.583Z,0
2016-10-18T04:44:12.418Z,0
2016-10-18T04:45:11.910Z,0
2016-10-18T04:46:12.472Z,0
2016-10-18T04:47:11.939Z,0
2016-10-18T04:48:11.638Z,0
2016-10-18T04:49:11.967Z,0
2016-10-18T04:50:12.427Z,0
2016-10-18T04:51:12.619Z,0
2016-10-18T04:52:12.431Z,0
2016-10-18T04:53:12.578Z,0
2016-10-18T04:54:11.786Z,0
2016-10-18T04:55:12.531Z,0
2016-10-18T04:56:11.691Z,0
2016-10-18T04:57:12.480Z,0
2016-10-18T04:58:11.768Z,0
2016-10-18T04:59:12.625Z,0
2016-10-18T05:00:12.465Z,0
2016-10-18T05:01:12.644Z,0
2016-10-18T05:02:12.090Z,0
2016-10-18T05:03:12.684Z,0
2016-10-18T05:04:11.854Z,0
2016-10-18T05:05:12.174Z,0
2016-10-18T05:06:12.176Z,0
2016-10-18T05:07:12.225Z,0
2016-10-18T05:08:12.652Z,0
2016-10-18T05:09:11.905Z,0
2016-10-18T05:10:12.244Z,0
2016-10-18T05:11:12.606Z,0
2016-10-18T05:12:12.295Z,0
2016-10-18T05:13:12.525Z,0
2016-10-18T05:14:12.373Z,0
2016-10-18T05:15:12.582Z,0
2016-10-18T05:16:12.681Z,0
2016-10-18T05:17:12.081Z,0
2016-10-18T05:18:12.614Z,0
2016-10-18T05:19:12.753Z,0
2016-10-18T05:20:12.806Z,0
2016-10-18T05:21:12.840Z,0
2016-10-18T05:22:12.643Z,0
2016-10-18T05:23:12.726Z,0
2016-10-18T05:24:12.824Z,0
2016-10-18T05:25:12.787Z,0
2016-10-18T05:26:12.642Z,0
2016-10-18T05:27:12.869Z,0
2016-10-18T05:28:13.001Z,0
2016-10-18T05:29:12.842Z,0
2016-10-18T05:30:13.032Z,0
2016-10-18T05:31:13.026Z,0
2016-10-18T05:32:13.022Z,0
2016-10-18T05:33:12.827Z,0
2016-10-18T05:34:13.015Z,0
2016-10-18T05:35:12.752Z,0
2016-10-18T05:36:12.421Z,0
2016-10-18T05:37:13.050Z,0
2016-10-18T05:38:13.090Z,0
2016-10-18T05:39:12.808Z,0
2016-10-18T05:40:13.122Z,0
2016-10-18T05:41:12.842Z,0
2016-10-18T05:42:12.770Z,0
2016-10-18T05:43:13.214Z,0
2016-10-18T05:44:12.890Z,0
2016-10-18T05:45:13.265Z,0
2016-10-18T05:46:12.820Z,0
2016-10-18T05:47:13.264Z,0
2016-10-18T05:48:13.335Z,0
2016-10-18T05:49:13.000Z,0
2016-10-18T05:50:13.307Z,5
2016-10-18T05:51:13.326Z,5
2016-10-18T05:52:13.029Z,5
2016-10-18T05:53:13.132Z,5
2016-10-18T05:54:13.069Z,5
2016-10-18T05:55:13.183Z,5
2016-10-18T05:56:12.843Z,5
2016-10-18T05:57:13.452Z,10
2016-10-18T05:58:13.223Z,10
2016-10-18T05:59:13.244Z,10
2016-10-18T06:00:12.909Z,10
2016-10-18T06:01:13.170Z,10
2016-10-18T06:02:13.524Z,15
2016-10-18T06:03:13.244Z,15
2016-10-18T06:04:13.315Z,15
2016-10-18T06:05:13.273Z,15
2016-10-18T06:06:13.381Z,15
2016-10-18T06:07:12.996Z,20
2016-10-18T06:08:13.628Z,20
2016-10-18T06:09:13.424Z,20
2016-10-18T06:10:13.353Z,20
2016-10-18T06:11:13.474Z,20
2016-10-18T06:12:12.943Z,25
2016-10-18T06:13:13.762Z,25
2016-10-18T06:14:13.755Z,25
2016-10-18T06:15:13.439Z,30
2016-10-18T06:16:13.460Z,25
2016-10-18T06:17:13.502Z,35
2016-10-18T06:18:13.254Z,35
2016-10-18T06:19:13.816Z,40
2016-10-18T06:20:13.527Z,45
2016-10-18T06:21:13.912Z,45
2016-10-18T06:22:13.911Z,45
2016-10-18T06:23:13.902Z,50
2016-10-18T06:24:14.060Z,50
2016-10-18T06:25:13.642Z,50
2016-10-18T06:26:13.657Z,55
2016-10-18T06:27:13.740Z,55
2016-10-18T06:28:13.982Z,60
2016-10-18T06:29:13.773Z,60
2016-10-18T06:30:14.043Z,60
2016-10-18T06:31:14.039Z,60
2016-10-18T06:32:14.230Z,65
2016-10-18T06:33:13.752Z,60
2016-10-18T06:34:14.168Z,65
2016-10-18T06:35:13.807Z,65
2016-10-18T06:36:14.165Z,70
2016-10-18T06:37:14.237Z,70
2016-10-18T06:38:13.864Z,70
2016-10-18T06:39:13.978Z,75
2016-10-18T06:40:14.229Z,70
2016-10-18T06:41:13.911Z,80
2016-10-18T06:42:14.241Z,80
2016-10-18T06:43:13.948Z,85
2016-10-18T06:44:14.270Z,90
2016-10-18T06:45:13.670Z,85
2016-10-18T06:46:14.309Z,85
2016-10-18T06:47:14.126Z,95
2016-10-18T06:48:14.101Z,95
2016-10-18T06:49:14.079Z,95
2016-10-18T06:50:14.427Z,105
2016-10-18T06:51:13.804Z,110
2016-10-18T06:52:14.162Z,105
2016-10-18T06:53:14.479Z,110
2016-10-18T06:54:14.296Z,100
2016-10-18T06:55:14.471Z,105
2016-10-18T06:56:14.503Z,110
2016-10-18T06:57:14.292Z,110
2016-10-18T06:58:14.274Z,110
2016-10-18T06:59:14.718Z,100
2016-10-18T07:00:13.653Z,105
2016-10-18T07:01:13.991Z,110
2016-10-18T07:02:14.311Z,100
2016-10-18T07:03:14.299Z,110
2016-10-18T07:04:14.016Z,100
2016-10-18T07:05:14.341Z,100
2016-10-18T07:06:14.740Z,115
2016-10-18T07:07:14.693Z,110
2016-10-18T07:08:14.771Z,115
2016-10-18T07:09:14.772Z,130
2016-10-18T07:10:14.499Z,140
2016-10-18T07:11:14.450Z,115
2016-10-18T07:12:14.643Z,135
2016-10-18T07:13:14.511Z,145
2016-10-18T07:14:14.211Z,130
2016-10-18T07:15:14.949Z,135
2016-10-18T07:16:14.914Z,140
2016-10-18T07:17:14.578Z,135
2016-10-18T07:18:14.899Z,140
2016-10-18T07:19:14.941Z,145
2016-10-18T07:20:14.622Z,145
2016-10-18T07:21:14.354Z,145
2016-10-18T07:22:14.982Z,160
2016-10-18T07:23:15.022Z,150
2016-10-18T07:24:14.393Z,175
2016-10-18T07:25:14.407Z,180
2016-10-18T07:26:15.138Z,185
2016-10-18T07:27:14.800Z,175
2016-10-18T07:28:14.807Z,180
2016-10-18T07:29:14.806Z,180
2016-10-18T07:30:14.725Z,190
2016-10-18T07:31:15.214Z,190
2016-10-18T07:32:15.252Z,200
2016-10-18T07:33:14.892Z,190
2016-10-18T07:34:15.009Z,195
2016-10-18T07:35:14.693Z,195
2016-10-18T07:36:15.262Z,195
2016-10-18T07:37:15.340Z,190
2016-10-18T07:38:15.393Z,200
2016-10-18T07:39:15.370Z,195
2016-10-18T07:40:15.081Z,195
2016-10-18T07:41:15.033Z,200
2016-10-18T07:42:15.434Z,195
2016-10-18T07:43:14.492Z,190
2016-10-18T07:44:15.481Z,205
2016-10-18T07:45:15.428Z,190
2016-10-18T07:46:15.132Z,195
2016-10-18T07:47:15.151Z,195
2016-10-18T07:48:15.506Z,190
2016-10-18T07:49:15.490Z,195
2016-10-18T07:50:15.505Z,190
2016-10-18T07:51:15.254Z,200
2016-10-18T07:52:15.559Z,215
2016-10-18T07:53:15.361Z,190
2016-10-18T07:54:15.667Z,205
2016-10-18T07:55:15.672Z,205
2016-10-18T07:56:15.311Z,200
2016-10-18T07:57:15.361Z,195
2016-10-18T07:58:15.673Z,190
2016-10-18T07:59:15.680Z,195
2016-10-18T08:00:15.412Z,195
2016-10-18T08:01:15.732Z,195
2016-10-18T08:02:15.742Z,195
2016-10-18T08:03:15.779Z,195
2016-10-18T08:04:15.176Z,195
2016-10-18T08:05:15.932Z,190
2016-10-18T08:06:15.654Z,195
2016-10-18T08:07:15.976Z,200
2016-10-18T08:08:15.582Z,200
2016-10-18T08:09:15.899Z,205
2016-10-18T08:10:15.605Z,195
2016-10-18T08:11:15.611Z,195
2016-10-18T08:12:15.953Z,190
2016-10-18T08:13:15.662Z,190
2016-10-18T08:14:15.691Z,190
2016-10-18T08:15:16.006Z,190
2016-10-18T08:16:16.041Z,195
2016-10-18T08:17:15.813Z,190
2016-10-18T08:18:16.253Z,190
2016-10-18T08:19:16.335Z,190
2016-10-18T08:20:16.288Z,195
2016-10-18T08:21:15.862Z,195
2016-10-18T08:22:16.326Z,195
2016-10-18T08:23:16.341Z,195
2016-10-18T08:24:15.592Z,195
2016-10-18T08:25:15.888Z,195
2016-10-18T08:26:15.925Z,195
2016-10-18T08:27:16.582Z,195
2016-10-18T08:28:16.319Z,195
2016-10-18T08:29:15.983Z,195
2016-10-18T08:30:16.031Z,195
2016-10-18T08:31:16.560Z,195
2016-10-18T08:32:16.394Z,195
2016-10-18T08:33:16.562Z,195
2016-10-18T08:34:16.119Z,195
2016-10-18T08:35:16.546Z,200
2016-10-18T08:36:15.511Z,200
2016-10-18T08:37:16.189Z,200
2016-10-18T08:38:16.452Z,200
2016-10-18T08:39:16.472Z,205
2016-10-18T08:40:16.236Z,200
2016-10-18T08:41:15.922Z,200
2016-10-18T08:42:16.527Z,200
2016-10-18T08:43:16.690Z,200
2016-10-18T08:44:15.684Z,195
2016-10-18T08:45:16.582Z,200
2016-10-18T08:46:16.471Z,200
2016-10-18T08:47:16.646Z,200
2016-10-18T08:48:16.713Z,205
2016-10-18T08:49:16.679Z,195
2016-10-18T08:50:16.673Z,195
2016-10-18T08:51:16.087Z,195
2016-10-18T08:52:16.723Z,200
2016-10-18T08:53:16.732Z,200
2016-10-18T08:54:16.711Z,200
2016-10-18T08:55:16.792Z,195
2016-10-18T08:56:16.702Z,195
2016-10-18T08:57:16.939Z,195
2016-10-18T08:58:16.898Z,195
2016-10-18T08:59:16.923Z,195
2016-10-18T09:00:16.901Z,200
2016-10-18T09:01:16.716Z,200
2016-10-18T09:02:16.619Z,200
2016-10-18T09:03:16.963Z,220
2016-10-18T09:04:16.412Z,205
2016-10-18T09:05:16.702Z,220
2016-10-18T09:06:16.572Z,210
2016-10-18T09:07:17.052Z,225
2016-10-18T09:08:16.760Z,210
2016-10-18T09:09:16.541Z,205
2016-10-18T09:10:16.857Z,215
2016-10-18T09:11:17.140Z,210
2016-10-18T09:12:17.177Z,205
2016-10-18T09:13:16.560Z,205
2016-10-18T09:14:16.961Z,195
2016-10-18T09:15:16.617Z,195
2016-10-18T09:16:17.208Z,200
2016-10-18T09:17:17.253Z,200
2016-10-18T09:18:17.339Z,195
2016-10-18T09:19:17.411Z,195
2016-10-18T09:20:17.103Z,200
2016-10-18T09:21:17.400Z,200
2016-10-18T09:22:17.030Z,200
2016-10-18T09:23:17.411Z,200
2016-10-18T09:24:17.062Z,195
2016-10-18T09:25:17.090Z,200
2016-10-18T09:26:17.228Z,195
2016-10-18T09:27:17.454Z,195
2016-10-18T09:28:16.902Z,195
2016-10-18T09:29:17.481Z,195
2016-10-18T09:30:17.513Z,195
2016-10-18T09:31:17.550Z,195
2016-10-18T09:32:17.663Z,190
2016-10-18T09:33:17.043Z,190
2016-10-18T09:34:17.662Z,190
2016-10-18T09:35:16.792Z,195
2016-10-18T09:36:17.624Z,195
2016-10-18T09:37:17.350Z,190
2016-10-18T09:38:17.674Z,215
2016-10-18T09:39:17.384Z,215
2016-10-18T09:40:17.760Z,195
2016-10-18T09:41:17.744Z,195
2016-10-18T09:42:17.132Z,185
2016-10-18T09:43:17.575Z,200
2016-10-18T09:44:17.509Z,215
2016-10-18T09:45:17.964Z,205
2016-10-18T09:46:17.829Z,185
2016-10-18T09:47:17.936Z,205
2016-10-18T09:48:17.002Z,195
2016-10-18T09:49:17.922Z,190
2016-10-18T09:50:17.322Z,190
2016-10-18T09:51:17.628Z,210
2016-10-18T09:52:17.652Z,225
2016-10-18T09:53:17.382Z,200
2016-10-18T09:54:17.684Z,210
2016-10-18T09:55:18.078Z,225
2016-10-18T09:56:18.043Z,220
2016-10-18T09:57:18.203Z,230
2016-10-18T09:58:18.105Z,240
2016-10-18T09:59:17.632Z,215
2016-10-18T10:00:18.186Z,215
2016-10-18T10:01:17.816Z,210
2016-10-18T10:02:17.863Z,215
2016-10-18T10:03:18.206Z,210
2016-10-18T10:04:18.211Z,210
2016-10-18T10:05:18.269Z,230
2016-10-18T10:06:17.685Z,230
2016-10-18T10:07:17.361Z,240
2016-10-18T10:08:17.737Z,220
2016-10-18T10:09:17.405Z,235
2016-10-18T10:10:18.037Z,235
2016-10-18T10:11:18.365Z,280
2016-10-18T10:12:18.127Z,280
2016-10-18T10:13:18.436Z,260
2016-10-18T10:14:18.444Z,260
2016-10-18T10:15:17.826Z,255
2016-10-18T10:16:18.477Z,280
2016-10-18T10:17:18.508Z,240
2016-10-18T10:18:18.235Z,255
2016-10-18T10:19:18.222Z,230
2016-10-18T10:20:17.958Z,245
2016-10-18T10:21:18.285Z,260
2016-10-18T10:22:18.305Z,245
2016-10-18T10:23:18.321Z,235
2016-10-18T10:24:18.771Z,240
2016-10-18T10:25:18.366Z,250
2016-10-18T10:26:18.718Z,265
2016-10-18T10:27:18.704Z,315
2016-10-18T10:28:18.187Z,275
2016-10-18T10:29:18.546Z,315
2016-10-18T10:30:18.568Z,280
2016-10-18T10:31:18.805Z,275
2016-10-18T10:32:18.930Z,275
2016-10-18T10:33:18.907Z,350
2016-10-18T10:34:18.915Z,295
2016-10-18T10:35:18.656Z,370
2016-10-18T10:36:18.607Z,285
2016-10-18T10:37:18.943Z,295
2016-10-18T10:38:18.955Z,280
2016-10-18T10:39:18.996Z,295
2016-10-18T10:40:19.024Z,245
2016-10-18T10:41:18.405Z,250
2016-10-18T10:42:18.850Z,305
2016-10-18T10:43:19.204Z,255
2016-10-18T10:44:18.526Z,230
2016-10-18T10:45:18.513Z,245
2016-10-18T10:46:18.827Z,275
2016-10-18T10:47:18.992Z,280
2016-10-18T10:48:18.856Z,275
2016-10-18T10:49:18.897Z,260
2016-10-18T10:50:19.229Z,315
2016-10-18T10:51:19.257Z,290
2016-10-18T10:52:18.936Z,330
2016-10-18T10:53:19.027Z,330
2016-10-18T10:54:18.707Z,275
2016-10-18T10:55:19.336Z,250
2016-10-18T10:56:19.367Z,260
2016-10-18T10:57:19.082Z,270
2016-10-18T10:58:18.808Z,285
2016-10-18T10:59:19.168Z,285
2016-10-18T11:00:19.138Z,265
2016-10-18T11:01:19.495Z,275
2016-10-18T11:02:19.517Z,335
2016-10-18T11:03:19.536Z,280
2016-10-18T11:04:19.546Z,280
2016-10-18T11:05:19.566Z,255
2016-10-18T11:06:19.614Z,290
2016-10-18T11:07:19.686Z,295
2016-10-18T11:08:19.318Z,290
2016-10-18T11:09:19.396Z,280
2016-10-18T11:10:19.706Z,280
2016-10-18T11:11:19.736Z,250
2016-10-18T11:12:19.413Z,270
2016-10-18T11:13:19.430Z,280
2016-10-18T11:14:19.589Z,280
2016-10-18T11:15:19.304Z,310
2016-10-18T11:16:19.765Z,295
2016-10-18T11:17:20.006Z,280
2016-10-18T11:18:19.607Z,275
2016-10-18T11:19:20.017Z,275
2016-10-18T11:20:19.626Z,285
2016-10-18T11:21:19.356Z,355
2016-10-18T11:22:19.753Z,335
2016-10-18T11:23:19.821Z,330
2016-10-18T11:24:20.049Z,320
2016-10-18T11:25:20.073Z,305
2016-10-18T11:26:20.034Z,300
2016-10-18T11:27:20.121Z,300
2016-10-18T11:28:19.794Z,290
2016-10-18T11:29:20.105Z,290
2016-10-18T11:30:19.515Z,285
2016-10-18T11:31:20.154Z,290
2016-10-18T11:32:20.195Z,290
2016-10-18T11:33:20.266Z,285
2016-10-18T11:34:20.250Z,280
2016-10-18T11:35:20.315Z,290
2016-10-18T11:36:19.813Z,285
2016-10-18T11:37:20.312Z,280
2016-10-18T11:38:20.334Z,285
2016-10-18T11:39:20.353Z,300
2016-10-18T11:40:20.356Z,315
2016-10-18T11:41:20.406Z,335
2016-10-18T11:42:20.095Z,340
2016-10-18T11:43:20.434Z,375
2016-10-18T11:44:20.149Z,455
2016-10-18T11:45:20.194Z,425
2016-10-18T11:46:20.229Z,380
2016-10-18T11:47:20.223Z,410
2016-10-18T11:48:20.244Z,340
2016-10-18T11:49:20.575Z,315
2016-10-18T11:50:20.583Z,310
2016-10-18T11:51:20.656Z,315
2016-10-18T11:52:20.648Z,305
2016-10-18T11:53:20.360Z,330
2016-10-18T11:54:20.688Z,340
2016-10-18T11:55:20.817Z,340
2016-10-18T11:56:20.841Z,325
2016-10-18T11:57:20.855Z,350
2016-10-18T11:58:20.854Z,335
2016-10-18T11:59:20.494Z,305
2016-10-18T12:00:20.815Z,355
2016-10-18T12:01:20.906Z,375
2016-10-18T12:02:20.586Z,290
2016-10-18T12:03:20.875Z,260
2016-10-18T12:04:20.620Z,305
2016-10-18T12:05:20.331Z,305
2016-10-18T12:06:21.066Z,320
2016-10-18T12:07:20.687Z,290
2016-10-18T12:08:20.704Z,270
2016-10-18T12:09:21.145Z,325
2016-10-18T12:10:21.124Z,330
2016-10-18T12:11:21.105Z,315
2016-10-18T12:12:21.112Z,330
2016-10-18T12:13:21.147Z,310
2016-10-18T12:14:20.687Z,325
2016-10-18T12:15:21.244Z,345
2016-10-18T12:16:20.940Z,285
2016-10-18T12:17:21.285Z,260
2016-10-18T12:18:21.009Z,265
2016-10-18T12:19:20.976Z,255
2016-10-18T12:20:21.385Z,275
2016-10-18T12:21:21.026Z,285
2016-10-18T12:22:21.363Z,270
2016-10-18T12:23:21.395Z,275
2016-10-18T12:24:21.391Z,305
2016-10-18T12:25:21.165Z,320
2016-10-18T12:26:21.188Z,330
2016-10-18T12:27:20.584Z,315
2016-10-18T12:28:21.506Z,310
2016-10-18T12:29:20.624Z,305
2016-10-18T12:30:21.604Z,300
2016-10-18T12:31:21.285Z,315
2016-10-18T12:32:21.688Z,300
2016-10-18T12:33:21.630Z,320
2016-10-18T12:34:21.645Z,310
2016-10-18T12:35:21.663Z,335
2016-10-18T12:36:21.710Z,335
2016-10-18T12:37:21.753Z,335
2016-10-18T12:38:21.424Z,320
2016-10-18T12:39:21.895Z,310
2016-10-18T12:40:21.935Z,310
2016-10-18T12:41:21.562Z,305
2016-10-18T12:42:21.216Z,305
2016-10-18T12:43:21.882Z,305
2016-10-18T12:44:21.930Z,305
2016-10-18T12:45:21.294Z,305
2016-10-18T12:46:21.974Z,315
2016-10-18T12:47:21.959Z,315
2016-10-18T12:48:21.985Z,320
2016-10-18T12:49:21.701Z,320
2016-10-18T12:50:22.233Z,315
2016-10-18T12:51:22.116Z,315
2016-10-18T12:52:22.165Z,315
2016-10-18T12:53:21.587Z,315
2016-10-18T12:54:22.235Z,320
2016-10-18T12:55:22.165Z,315
2016-10-18T12:56:22.206Z,310
2016-10-18T12:57:21.878Z,310
2016-10-18T12:58:21.912Z,300
2016-10-18T12:59:22.254Z,295
2016-10-18T13:00:22.315Z,295
2016-10-18T13:01:22.000Z,290
2016-10-18T13:02:22.009Z,285
2016-10-18T13:03:22.126Z,285
2016-10-18T13:04:22.392Z,275
2016-10-18T13:05:22.082Z,260
2016-10-18T13:06:22.401Z,250
2016-10-18T13:07:21.500Z,260
2016-10-18T13:08:22.182Z,260
2016-10-18T13:09:22.267Z,250
2016-10-18T13:10:22.219Z,245
2016-10-18T13:11:22.626Z,230
2016-10-18T13:12:22.236Z,215
2016-10-18T13:13:22.285Z,215
2016-10-18T13:14:22.303Z,205
2016-10-18T13:15:22.318Z,215
2016-10-18T13:16:22.768Z,210
2016-10-18T13:17:22.660Z,210
2016-10-18T13:18:22.458Z,205
2016-10-18T13:19:22.538Z,205
2016-10-18T13:20:22.740Z,200
2016-10-18T13:21:22.597Z,205
2016-10-18T13:22:22.557Z,200
2016-10-18T13:23:22.930Z,200
2016-10-18T13:24:22.849Z,200
2016-10-18T13:25:22.869Z,200
2016-10-18T13:26:22.256Z,200
2016-10-18T13:27:22.884Z,200
2016-10-18T13:28:23.029Z,200
2016-10-18T13:29:22.969Z,200
2016-10-18T13:30:22.416Z,205
2016-10-18T13:31:22.695Z,195
2016-10-18T13:32:23.047Z,185
2016-10-18T13:33:23.060Z,185
2016-10-18T13:34:22.871Z,185
2016-10-18T13:35:22.860Z,185
2016-10-18T13:36:23.218Z,195
2016-10-18T13:37:23.260Z,195
2016-10-18T13:38:23.257Z,200
2016-10-18T13:39:23.199Z,205
2016-10-18T13:40:23.206Z,205
2016-10-18T13:41:23.235Z,215
2016-10-18T13:42:23.479Z,220
2016-10-18T13:43:23.534Z,235
2016-10-18T13:44:23.450Z,250
2016-10-18T13:45:23.536Z,255
2016-10-18T13:46:23.643Z,265
2016-10-18T13:47:23.528Z,265
2016-10-18T13:48:23.659Z,270
2016-10-18T13:49:23.520Z,270
2016-10-18T13:50:23.708Z,265
2016-10-18T13:51:23.518Z,260
2016-10-18T13:52:23.701Z,255
2016-10-18T13:53:23.329Z,250
2016-10-18T13:54:23.648Z,240
2016-10-18T13:55:23.568Z,230
2016-10-18T13:56:23.685Z,220
2016-10-18T13:57:23.291Z,205
2016-10-18T13:58:23.759Z,190
2016-10-18T13:59:23.817Z,185
2016-10-18T14:00:23.739Z,175
2016-10-18T14:01:23.806Z,165
2016-10-18T14:02:23.780Z,155
2016-10-18T14:03:23.455Z,150
2016-10-18T14:04:23.771Z,150
2016-10-18T14:05:23.809Z,150
2016-10-18T14:06:23.817Z,150
2016-10-18T14:07:23.510Z,155
2016-10-18T14:08:23.876Z,155
2016-10-18T14:09:23.607Z,150
2016-10-18T14:10:23.598Z,150
2016-10-18T14:11:23.827Z,145
2016-10-18T14:12:23.957Z,145